EHDV

Details ICAO EHDV
Name Voorst Sport
Region Netherlands
Timezone Europe/Amsterdam (UTC+2.0)
Plans Departing 0
Arriving 1
Stats Elevation 1 ft / 0 m (AMSL)
Location 52.668518° 5.928619°
Runways 1
Magnetic Variation 1.559° E
Sunrise 2018-05-27 03:25:07 UTC / 2018-05-27 05:25:07 Local
Sunset 2018-05-27 19:44:38 UTC / 2018-05-27 21:44:38 Local
Advertisement - Login to hide

Runways

ID Width Length Bearing (true) Bearing (mag) Surface Threshold Offset Overrun Length
05 120 ft / 37 m 2,803 ft / 854 m 48.00° 46.44° Grass 0 ft / 0 m 0 ft / 0 m
23 120 ft / 37 m 2,803 ft / 854 m 228.00° 226.44° Grass 0 ft / 0 m 0 ft / 0 m

Map

Weather


0- 5 10 15 20 25 30 35+ Temperature / ° C

Clouds and Precipitation
Forecast for 2018-05-27 12:00 UTC. Updated 3 hours ago

Ground ~20,000 ft ~40,000 ft Winds

METAR

EHDV 271355Z AUTO 08017KT 5000 BR NSC 13/13 Q1020 W///H///

TAF

Not found
Warning: Do not use this data for real-world aviation or navigation. No guarantee of current accuracy is given.